sensor_id;sensor_type;location;lat;lon;timestamp;P1;durP1;ratioP1;P2;durP2;ratioP2
45522;SDS011;31254;51.680;5.394;2022-08-19T00:02:11;15.45;;;12.70;;
45522;SDS011;31254;51.680;5.394;2022-08-19T00:04:38;13.80;;;12.27;;
45522;SDS011;31254;51.680;5.394;2022-08-19T00:07:06;14.48;;;12.57;;
45522;SDS011;31254;51.680;5.394;2022-08-19T00:09:33;17.02;;;12.18;;
45522;SDS011;31254;51.680;5.394;2022-08-19T00:12:00;19.95;;;13.63;;
45522;SDS011;31254;51.680;5.394;2022-08-19T00:14:27;16.25;;;13.68;;
45522;SDS011;31254;51.680;5.394;2022-08-19T00:16:57;16.15;;;14.07;;
45522;SDS011;31254;51.680;5.394;2022-08-19T00:19:25;17.02;;;14.02;;
45522;SDS011;31254;51.680;5.394;2022-08-19T00:21:51;18.33;;;13.73;;
45522;SDS011;31254;51.680;5.394;2022-08-19T00:24:18;17.58;;;14.27;;
45522;SDS011;31254;51.680;5.394;2022-08-19T00:26:45;17.25;;;13.45;;
45522;SDS011;31254;51.680;5.394;2022-08-19T00:29:14;16.88;;;14.43;;
45522;SDS011;31254;51.680;5.394;2022-08-19T00:31:44;22.73;;;13.88;;
45522;SDS011;31254;51.680;5.394;2022-08-19T00:34:11;16.80;;;13.90;;
45522;SDS011;31254;51.680;5.394;2022-08-19T00:36:45;17.15;;;13.98;;
45522;SDS011;31254;51.680;5.394;2022-08-19T00:39:16;19.52;;;14.85;;
45522;SDS011;31254;51.680;5.394;2022-08-19T00:41:43;18.10;;;13.98;;
45522;SDS011;31254;51.680;5.394;2022-08-19T00:44:14;22.13;;;14.55;;
45522;SDS011;31254;51.680;5.394;2022-08-19T00:46:53;17.67;;;14.75;;
45522;SDS011;31254;51.680;5.394;2022-08-19T00:52:14;18.60;;;14.38;;
45522;SDS011;31254;51.680;5.394;2022-08-19T00:54:45;19.45;;;15.00;;
45522;SDS011;31254;51.680;5.394;2022-08-19T00:57:18;21.10;;;15.65;;
45522;SDS011;31254;51.680;5.394;2022-08-19T00:59:53;17.95;;;14.35;;
45522;SDS011;31254;51.680;5.394;2022-08-19T01:02:28;18.85;;;14.98;;
45522;SDS011;31254;51.680;5.394;2022-08-19T01:04:56;18.10;;;14.98;;
45522;SDS011;31254;51.680;5.394;2022-08-19T01:07:23;19.08;;;14.93;;
45522;SDS011;31254;51.680;5.394;2022-08-19T01:09:50;19.38;;;15.82;;
45522;SDS011;31254;51.680;5.394;2022-08-19T01:12:18;21.02;;;15.25;;
45522;SDS011;31254;51.680;5.394;2022-08-19T01:14:47;19.60;;;15.10;;
45522;SDS011;31254;51.680;5.394;2022-08-19T01:17:17;17.50;;;14.30;;
45522;SDS011;31254;51.680;5.394;2022-08-19T01:19:48;18.77;;;15.60;;
45522;SDS011;31254;51.680;5.394;2022-08-19T01:22:31;19.20;;;15.10;;
45522;SDS011;31254;51.680;5.394;2022-08-19T01:25:06;17.65;;;14.07;;
45522;SDS011;31254;51.680;5.394;2022-08-19T01:27:40;21.25;;;14.40;;
45522;SDS011;31254;51.680;5.394;2022-08-19T01:30:12;20.55;;;15.60;;
45522;SDS011;31254;51.680;5.394;2022-08-19T01:32:43;19.92;;;15.93;;
45522;SDS011;31254;51.680;5.394;2022-08-19T01:35:11;21.85;;;15.20;;
45522;SDS011;31254;51.680;5.394;2022-08-19T01:37:42;22.25;;;14.23;;
45522;SDS011;31254;51.680;5.394;2022-08-19T01:40:15;19.52;;;13.82;;
45522;SDS011;31254;51.680;5.394;2022-08-19T01:42:42;18.15;;;13.48;;
45522;SDS011;31254;51.680;5.394;2022-08-19T01:45:11;18.70;;;14.07;;
45522;SDS011;31254;51.680;5.394;2022-08-19T01:47:40;20.48;;;15.13;;
45522;SDS011;31254;51.680;5.394;2022-08-19T01:50:08;20.30;;;14.60;;
45522;SDS011;31254;51.680;5.394;2022-08-19T01:52:36;25.42;;;15.93;;
45522;SDS011;31254;51.680;5.394;2022-08-19T01:55:06;22.13;;;16.00;;
45522;SDS011;31254;51.680;5.394;2022-08-19T01:57:46;22.50;;;16.92;;
45522;SDS011;31254;51.680;5.394;2022-08-19T02:00:17;22.02;;;16.15;;
45522;SDS011;31254;51.680;5.394;2022-08-19T02:02:46;21.27;;;17.00;;
45522;SDS011;31254;51.680;5.394;2022-08-19T02:05:12;23.02;;;16.58;;
45522;SDS011;31254;51.680;5.394;2022-08-19T02:07:40;23.85;;;16.90;;
45522;SDS011;31254;51.680;5.394;2022-08-19T02:10:09;21.65;;;16.35;;
45522;SDS011;31254;51.680;5.394;2022-08-19T02:12:41;23.13;;;16.52;;
45522;SDS011;31254;51.680;5.394;2022-08-19T02:15:12;24.60;;;15.82;;
45522;SDS011;31254;51.680;5.394;2022-08-19T02:17:39;22.80;;;16.60;;
45522;SDS011;31254;51.680;5.394;2022-08-19T02:20:09;22.58;;;15.93;;
45522;SDS011;31254;51.680;5.394;2022-08-19T02:22:36;21.35;;;16.33;;
45522;SDS011;31254;51.680;5.394;2022-08-19T02:25:03;22.00;;;15.95;;
45522;SDS011;31254;51.680;5.394;2022-08-19T02:27:30;22.27;;;16.33;;
45522;SDS011;31254;51.680;5.394;2022-08-19T02:29:58;22.30;;;16.48;;
45522;SDS011;31254;51.680;5.394;2022-08-19T02:32:27;23.77;;;16.10;;
45522;SDS011;31254;51.680;5.394;2022-08-19T02:34:53;23.88;;;16.05;;
45522;SDS011;31254;51.680;5.394;2022-08-19T02:37:22;24.98;;;17.15;;
45522;SDS011;31254;51.680;5.394;2022-08-19T02:40:08;23.88;;;17.15;;
45522;SDS011;31254;51.680;5.394;2022-08-19T02:42:38;30.08;;;18.98;;
45522;SDS011;31254;51.680;5.394;2022-08-19T02:45:04;28.73;;;19.40;;
45522;SDS011;31254;51.680;5.394;2022-08-19T02:47:31;29.83;;;19.83;;
45522;SDS011;31254;51.680;5.394;2022-08-19T02:49:58;29.10;;;20.67;;
45522;SDS011;31254;51.680;5.394;2022-08-19T02:52:27;29.23;;;19.42;;
45522;SDS011;31254;51.680;5.394;2022-08-19T02:54:54;29.92;;;20.05;;
45522;SDS011;31254;51.680;5.394;2022-08-19T02:57:23;28.15;;;20.05;;
45522;SDS011;31254;51.680;5.394;2022-08-19T02:59:50;27.45;;;19.75;;
45522;SDS011;31254;51.680;5.394;2022-08-19T03:02:17;27.30;;;18.90;;
45522;SDS011;31254;51.680;5.394;2022-08-19T03:04:43;25.73;;;19.88;;
45522;SDS011;31254;51.680;5.394;2022-08-19T03:07:12;28.83;;;18.80;;
45522;SDS011;31254;51.680;5.394;2022-08-19T03:09:41;25.17;;;17.40;;
45522;SDS011;31254;51.680;5.394;2022-08-19T03:12:08;24.08;;;16.90;;
45522;SDS011;31254;51.680;5.394;2022-08-19T03:14:36;25.55;;;17.83;;
45522;SDS011;31254;51.680;5.394;2022-08-19T03:17:03;22.30;;;17.55;;
45522;SDS011;31254;51.680;5.394;2022-08-19T03:19:34;25.80;;;17.55;;
45522;SDS011;31254;51.680;5.394;2022-08-19T03:22:01;23.85;;;17.67;;
45522;SDS011;31254;51.680;5.394;2022-08-19T03:24:28;24.27;;;17.05;;
45522;SDS011;31254;51.680;5.394;2022-08-19T03:26:55;28.17;;;17.73;;
45522;SDS011;31254;51.680;5.394;2022-08-19T03:29:26;24.70;;;17.05;;
45522;SDS011;31254;51.680;5.394;2022-08-19T03:32:00;26.95;;;18.15;;
45522;SDS011;31254;51.680;5.394;2022-08-19T03:34:30;21.00;;;16.17;;
45522;SDS011;31254;51.680;5.394;2022-08-19T03:36:59;23.58;;;17.33;;
45522;SDS011;31254;51.680;5.394;2022-08-19T03:39:33;27.42;;;18.10;;
45522;SDS011;31254;51.680;5.394;2022-08-19T03:42:00;22.67;;;17.35;;
45522;SDS011;31254;51.680;5.394;2022-08-19T03:44:48;26.73;;;18.63;;
45522;SDS011;31254;51.680;5.394;2022-08-19T03:47:15;25.85;;;18.02;;
45522;SDS011;31254;51.680;5.394;2022-08-19T03:49:42;24.35;;;18.02;;
45522;SDS011;31254;51.680;5.394;2022-08-19T03:52:09;23.00;;;17.05;;
45522;SDS011;31254;51.680;5.394;2022-08-19T03:54:36;25.55;;;16.65;;
45522;SDS011;31254;51.680;5.394;2022-08-19T03:57:04;25.00;;;17.38;;
45522;SDS011;31254;51.680;5.394;2022-08-19T03:59:32;25.15;;;17.90;;
45522;SDS011;31254;51.680;5.394;2022-08-19T04:02:03;23.30;;;17.20;;
45522;SDS011;31254;51.680;5.394;2022-08-19T04:04:35;24.80;;;18.02;;
45522;SDS011;31254;51.680;5.394;2022-08-19T04:07:06;24.17;;;17.75;;
45522;SDS011;31254;51.680;5.394;2022-08-19T04:09:33;24.38;;;17.85;;
45522;SDS011;31254;51.680;5.394;2022-08-19T04:12:02;25.70;;;17.67;;
45522;SDS011;31254;51.680;5.394;2022-08-19T04:14:31;26.40;;;18.60;;
45522;SDS011;31254;51.680;5.394;2022-08-19T04:16:58;25.00;;;18.25;;
45522;SDS011;31254;51.680;5.394;2022-08-19T04:19:28;27.65;;;18.05;;
45522;SDS011;31254;51.680;5.394;2022-08-19T04:21:56;22.70;;;17.45;;
45522;SDS011;31254;51.680;5.394;2022-08-19T04:24:25;26.77;;;19.55;;
45522;SDS011;31254;51.680;5.394;2022-08-19T04:26:52;26.98;;;18.20;;
45522;SDS011;31254;51.680;5.394;2022-08-19T04:29:20;24.13;;;18.55;;
45522;SDS011;31254;51.680;5.394;2022-08-19T04:31:51;25.80;;;18.40;;
45522;SDS011;31254;51.680;5.394;2022-08-19T04:34:20;25.27;;;18.25;;
45522;SDS011;31254;51.680;5.394;2022-08-19T04:36:51;25.50;;;18.00;;
45522;SDS011;31254;51.680;5.394;2022-08-19T04:39:21;22.08;;;17.42;;
45522;SDS011;31254;51.680;5.394;2022-08-19T04:42:10;30.52;;;17.85;;
45522;SDS011;31254;51.680;5.394;2022-08-19T04:44:56;29.00;;;19.40;;
45522;SDS011;31254;51.680;5.394;2022-08-19T04:47:30;24.10;;;18.10;;
45522;SDS011;31254;51.680;5.394;2022-08-19T04:50:18;28.98;;;17.58;;
45522;SDS011;31254;51.680;5.394;2022-08-19T04:52:45;26.05;;;19.27;;
45522;SDS011;31254;51.680;5.394;2022-08-19T04:55:12;27.42;;;18.77;;
45522;SDS011;31254;51.680;5.394;2022-08-19T04:57:38;26.67;;;19.85;;
45522;SDS011;31254;51.680;5.394;2022-08-19T05:00:07;29.27;;;18.88;;
45522;SDS011;31254;51.680;5.394;2022-08-19T05:02:37;27.33;;;18.80;;
45522;SDS011;31254;51.680;5.394;2022-08-19T05:05:09;27.30;;;18.90;;
45522;SDS011;31254;51.680;5.394;2022-08-19T05:07:36;32.42;;;20.83;;
45522;SDS011;31254;51.680;5.394;2022-08-19T05:10:04;28.00;;;21.20;;
45522;SDS011;31254;51.680;5.394;2022-08-19T05:12:31;30.48;;;21.23;;
45522;SDS011;31254;51.680;5.394;2022-08-19T05:14:58;28.40;;;21.10;;
45522;SDS011;31254;51.680;5.394;2022-08-19T05:17:26;29.58;;;20.77;;
45522;SDS011;31254;51.680;5.394;2022-08-19T05:20:04;33.58;;;22.23;;
45522;SDS011;31254;51.680;5.394;2022-08-19T05:22:52;33.38;;;21.83;;
45522;SDS011;31254;51.680;5.394;2022-08-19T05:25:22;31.05;;;21.83;;
45522;SDS011;31254;51.680;5.394;2022-08-19T05:27:51;33.85;;;23.67;;
45522;SDS011;31254;51.680;5.394;2022-08-19T05:30:21;32.28;;;22.95;;
45522;SDS011;31254;51.680;5.394;2022-08-19T05:33:12;39.72;;;24.33;;
45522;SDS011;31254;51.680;5.394;2022-08-19T05:35:38;35.25;;;25.15;;
45522;SDS011;31254;51.680;5.394;2022-08-19T05:38:07;37.65;;;25.17;;
45522;SDS011;31254;51.680;5.394;2022-08-19T05:40:37;35.60;;;24.23;;
45522;SDS011;31254;51.680;5.394;2022-08-19T05:43:07;36.60;;;24.08;;
45522;SDS011;31254;51.680;5.394;2022-08-19T05:45:38;34.67;;;25.38;;
45522;SDS011;31254;51.680;5.394;2022-08-19T05:48:06;39.28;;;24.27;;
45522;SDS011;31254;51.680;5.394;2022-08-19T05:50:37;39.30;;;26.05;;
45522;SDS011;31254;51.680;5.394;2022-08-19T05:53:05;36.10;;;24.77;;
45522;SDS011;31254;51.680;5.394;2022-08-19T05:55:32;33.22;;;23.85;;
45522;SDS011;31254;51.680;5.394;2022-08-19T05:57:58;34.70;;;23.45;;
45522;SDS011;31254;51.680;5.394;2022-08-19T06:00:27;36.33;;;24.63;;
45522;SDS011;31254;51.680;5.394;2022-08-19T06:02:59;37.05;;;24.83;;
45522;SDS011;31254;51.680;5.394;2022-08-19T06:05:38;32.85;;;22.88;;
45522;SDS011;31254;51.680;5.394;2022-08-19T06:08:17;32.30;;;23.20;;
45522;SDS011;31254;51.680;5.394;2022-08-19T06:10:45;37.38;;;25.23;;
45522;SDS011;31254;51.680;5.394;2022-08-19T06:13:14;35.78;;;25.58;;
45522;SDS011;31254;51.680;5.394;2022-08-19T06:15:40;40.45;;;26.38;;
45522;SDS011;31254;51.680;5.394;2022-08-19T06:18:12;40.22;;;26.08;;
45522;SDS011;31254;51.680;5.394;2022-08-19T06:20:43;41.95;;;26.13;;
45522;SDS011;31254;51.680;5.394;2022-08-19T06:23:21;38.03;;;24.63;;
45522;SDS011;31254;51.680;5.394;2022-08-19T06:25:49;34.38;;;24.05;;
45522;SDS011;31254;51.680;5.394;2022-08-19T06:28:16;41.38;;;24.42;;
45522;SDS011;31254;51.680;5.394;2022-08-19T06:30:43;37.35;;;25.65;;
45522;SDS011;31254;51.680;5.394;2022-08-19T06:33:10;38.10;;;24.23;;
45522;SDS011;31254;51.680;5.394;2022-08-19T06:35:40;38.90;;;26.17;;
45522;SDS011;31254;51.680;5.394;2022-08-19T06:38:10;40.85;;;26.17;;
45522;SDS011;31254;51.680;5.394;2022-08-19T06:40:36;46.83;;;25.50;;
45522;SDS011;31254;51.680;5.394;2022-08-19T06:43:04;40.58;;;24.98;;
45522;SDS011;31254;51.680;5.394;2022-08-19T06:45:36;38.80;;;25.25;;
45522;SDS011;31254;51.680;5.394;2022-08-19T06:48:05;43.45;;;26.45;;
45522;SDS011;31254;51.680;5.394;2022-08-19T06:50:31;40.72;;;26.35;;
45522;SDS011;31254;51.680;5.394;2022-08-19T06:52:58;39.45;;;25.92;;
45522;SDS011;31254;51.680;5.394;2022-08-19T06:55:31;39.97;;;25.60;;
45522;SDS011;31254;51.680;5.394;2022-08-19T06:58:01;44.90;;;26.23;;
45522;SDS011;31254;51.680;5.394;2022-08-19T07:00:29;46.08;;;26.88;;
45522;SDS011;31254;51.680;5.394;2022-08-19T07:02:59;45.35;;;26.60;;
45522;SDS011;31254;51.680;5.394;2022-08-19T07:05:37;43.08;;;26.30;;
45522;SDS011;31254;51.680;5.394;2022-08-19T07:08:10;43.70;;;27.23;;
45522;SDS011;31254;51.680;5.394;2022-08-19T07:10:41;47.33;;;26.85;;
45522;SDS011;31254;51.680;5.394;2022-08-19T07:13:09;46.22;;;27.88;;
45522;SDS011;31254;51.680;5.394;2022-08-19T07:15:36;45.17;;;27.90;;
45522;SDS011;31254;51.680;5.394;2022-08-19T07:18:04;41.80;;;26.48;;
45522;SDS011;31254;51.680;5.394;2022-08-19T07:20:31;47.83;;;28.58;;
45522;SDS011;31254;51.680;5.394;2022-08-19T07:22:59;51.92;;;29.23;;
45522;SDS011;31254;51.680;5.394;2022-08-19T07:25:32;49.05;;;28.10;;
45522;SDS011;31254;51.680;5.394;2022-08-19T07:27:59;52.72;;;28.15;;
45522;SDS011;31254;51.680;5.394;2022-08-19T07:30:26;44.80;;;28.65;;
45522;SDS011;31254;51.680;5.394;2022-08-19T07:32:54;43.40;;;27.70;;
45522;SDS011;31254;51.680;5.394;2022-08-19T07:35:25;44.65;;;26.60;;
45522;SDS011;31254;51.680;5.394;2022-08-19T07:37:51;39.92;;;26.33;;
45522;SDS011;31254;51.680;5.394;2022-08-19T07:40:19;44.15;;;27.08;;
45522;SDS011;31254;51.680;5.394;2022-08-19T07:42:48;48.60;;;25.00;;
45522;SDS011;31254;51.680;5.394;2022-08-19T07:45:14;43.15;;;24.50;;
45522;SDS011;31254;51.680;5.394;2022-08-19T07:47:42;40.50;;;23.77;;
45522;SDS011;31254;51.680;5.394;2022-08-19T07:50:16;39.80;;;23.88;;
45522;SDS011;31254;51.680;5.394;2022-08-19T07:52:45;41.63;;;24.02;;
45522;SDS011;31254;51.680;5.394;2022-08-19T07:55:15;41.08;;;25.23;;
45522;SDS011;31254;51.680;5.394;2022-08-19T07:58:04;38.15;;;23.17;;
45522;SDS011;31254;51.680;5.394;2022-08-19T08:00:31;40.92;;;23.67;;
45522;SDS011;31254;51.680;5.394;2022-08-19T08:02:58;43.88;;;24.45;;
45522;SDS011;31254;51.680;5.394;2022-08-19T08:05:27;46.00;;;25.23;;
45522;SDS011;31254;51.680;5.394;2022-08-19T08:08:12;42.97;;;24.98;;
45522;SDS011;31254;51.680;5.394;2022-08-19T08:11:13;48.88;;;24.75;;
45522;SDS011;31254;51.680;5.394;2022-08-19T08:13:45;44.53;;;25.70;;
45522;SDS011;31254;51.680;5.394;2022-08-19T08:16:25;40.05;;;24.52;;
45522;SDS011;31254;51.680;5.394;2022-08-19T08:18:56;47.45;;;26.40;;
45522;SDS011;31254;51.680;5.394;2022-08-19T08:21:26;46.22;;;25.73;;
45522;SDS011;31254;51.680;5.394;2022-08-19T08:23:55;43.75;;;25.50;;
45522;SDS011;31254;51.680;5.394;2022-08-19T08:26:29;43.47;;;25.20;;
45522;SDS011;31254;51.680;5.394;2022-08-19T08:28:59;37.85;;;23.73;;
45522;SDS011;31254;51.680;5.394;2022-08-19T08:31:26;34.72;;;22.25;;
45522;SDS011;31254;51.680;5.394;2022-08-19T08:33:55;44.15;;;23.88;;
45522;SDS011;31254;51.680;5.394;2022-08-19T08:36:21;40.20;;;24.85;;
45522;SDS011;31254;51.680;5.394;2022-08-19T08:38:48;37.53;;;23.90;;
45522;SDS011;31254;51.680;5.394;2022-08-19T08:44:03;36.13;;;21.65;;
45522;SDS011;31254;51.680;5.394;2022-08-19T08:46:46;34.45;;;20.63;;
45522;SDS011;31254;51.680;5.394;2022-08-19T08:49:43;35.05;;;21.52;;
45522;SDS011;31254;51.680;5.394;2022-08-19T08:54:47;34.65;;;22.10;;
45522;SDS011;31254;51.680;5.394;2022-08-19T09:00:10;37.22;;;23.08;;
45522;SDS011;31254;51.680;5.394;2022-08-19T09:02:41;37.95;;;23.67;;
45522;SDS011;31254;51.680;5.394;2022-08-19T09:05:09;42.80;;;24.08;;
45522;SDS011;31254;51.680;5.394;2022-08-19T09:10:39;42.00;;;24.13;;
45522;SDS011;31254;51.680;5.394;2022-08-19T09:16:07;37.38;;;23.65;;
45522;SDS011;31254;51.680;5.394;2022-08-19T09:18:44;42.85;;;24.77;;
45522;SDS011;31254;51.680;5.394;2022-08-19T09:21:14;37.97;;;22.85;;
45522;SDS011;31254;51.680;5.394;2022-08-19T09:23:42;41.22;;;23.95;;
45522;SDS011;31254;51.680;5.394;2022-08-19T09:26:10;37.53;;;22.85;;
45522;SDS011;31254;51.680;5.394;2022-08-19T09:28:42;34.53;;;22.63;;
45522;SDS011;31254;51.680;5.394;2022-08-19T09:31:14;36.67;;;23.10;;
45522;SDS011;31254;51.680;5.394;2022-08-19T09:33:46;42.67;;;24.58;;
45522;SDS011;31254;51.680;5.394;2022-08-19T09:36:14;44.25;;;26.42;;
45522;SDS011;31254;51.680;5.394;2022-08-19T09:39:00;42.20;;;26.75;;
45522;SDS011;31254;51.680;5.394;2022-08-19T09:41:27;44.35;;;27.00;;
45522;SDS011;31254;51.680;5.394;2022-08-19T09:43:55;44.50;;;26.48;;
45522;SDS011;31254;51.680;5.394;2022-08-19T09:46:26;43.78;;;26.15;;
45522;SDS011;31254;51.680;5.394;2022-08-19T09:48:58;40.63;;;26.65;;
45522;SDS011;31254;51.680;5.394;2022-08-19T09:51:32;38.92;;;24.75;;
45522;SDS011;31254;51.680;5.394;2022-08-19T09:54:01;35.22;;;24.13;;
45522;SDS011;31254;51.680;5.394;2022-08-19T09:56:30;36.20;;;23.05;;
45522;SDS011;31254;51.680;5.394;2022-08-19T09:58:58;33.90;;;22.73;;
45522;SDS011;31254;51.680;5.394;2022-08-19T10:01:26;32.55;;;20.63;;
45522;SDS011;31254;51.680;5.394;2022-08-19T10:03:55;34.38;;;21.92;;
45522;SDS011;31254;51.680;5.394;2022-08-19T10:06:24;32.30;;;20.52;;
45522;SDS011;31254;51.680;5.394;2022-08-19T10:09:11;32.47;;;20.75;;
45522;SDS011;31254;51.680;5.394;2022-08-19T10:11:39;33.10;;;21.65;;
45522;SDS011;31254;51.680;5.394;2022-08-19T10:14:20;34.85;;;21.77;;
45522;SDS011;31254;51.680;5.394;2022-08-19T10:16:49;33.25;;;21.23;;
45522;SDS011;31254;51.680;5.394;2022-08-19T10:19:20;37.00;;;22.48;;
45522;SDS011;31254;51.680;5.394;2022-08-19T10:21:51;35.45;;;22.30;;
45522;SDS011;31254;51.680;5.394;2022-08-19T10:24:25;35.25;;;23.73;;
45522;SDS011;31254;51.680;5.394;2022-08-19T10:26:54;38.40;;;23.48;;
45522;SDS011;31254;51.680;5.394;2022-08-19T10:29:25;36.88;;;23.80;;
45522;SDS011;31254;51.680;5.394;2022-08-19T10:31:59;36.67;;;23.75;;
45522;SDS011;31254;51.680;5.394;2022-08-19T10:34:28;33.95;;;23.58;;
45522;SDS011;31254;51.680;5.394;2022-08-19T10:36:55;38.42;;;23.60;;
45522;SDS011;31254;51.680;5.394;2022-08-19T10:39:30;38.25;;;25.10;;
45522;SDS011;31254;51.680;5.394;2022-08-19T10:42:08;38.28;;;24.95;;
45522;SDS011;31254;51.680;5.394;2022-08-19T10:44:39;41.38;;;26.45;;
45522;SDS011;31254;51.680;5.394;2022-08-19T10:47:06;42.05;;;26.35;;
45522;SDS011;31254;51.680;5.394;2022-08-19T10:49:50;37.28;;;24.90;;
45522;SDS011;31254;51.680;5.394;2022-08-19T10:52:38;42.92;;;23.60;;
45522;SDS011;31254;51.680;5.394;2022-08-19T10:55:16;32.22;;;23.27;;
45522;SDS011;31254;51.680;5.394;2022-08-19T10:58:06;38.97;;;25.00;;
45522;SDS011;31254;51.680;5.394;2022-08-19T11:00:36;32.70;;;24.77;;
45522;SDS011;31254;51.680;5.394;2022-08-19T11:03:03;39.67;;;25.67;;
45522;SDS011;31254;51.680;5.394;2022-08-19T11:05:30;40.40;;;24.92;;
45522;SDS011;31254;51.680;5.394;2022-08-19T11:08:05;37.50;;;25.60;;
45522;SDS011;31254;51.680;5.394;2022-08-19T11:10:49;38.50;;;26.20;;
45522;SDS011;31254;51.680;5.394;2022-08-19T11:13:21;37.03;;;24.88;;
45522;SDS011;31254;51.680;5.394;2022-08-19T11:15:58;40.92;;;26.67;;
45522;SDS011;31254;51.680;5.394;2022-08-19T11:18:32;36.15;;;24.92;;
45522;SDS011;31254;51.680;5.394;2022-08-19T11:21:09;34.03;;;23.23;;
45522;SDS011;31254;51.680;5.394;2022-08-19T11:24:01;35.08;;;23.77;;
45522;SDS011;31254;51.680;5.394;2022-08-19T11:26:35;34.90;;;24.33;;
45522;SDS011;31254;51.680;5.394;2022-08-19T11:29:03;29.17;;;21.58;;
45522;SDS011;31254;51.680;5.394;2022-08-19T11:31:33;34.53;;;22.58;;
45522;SDS011;31254;51.680;5.394;2022-08-19T11:34:03;38.13;;;24.73;;
45522;SDS011;31254;51.680;5.394;2022-08-19T11:36:32;39.85;;;26.00;;
45522;SDS011;31254;51.680;5.394;2022-08-19T11:39:03;40.85;;;24.48;;
45522;SDS011;31254;51.680;5.394;2022-08-19T11:41:32;42.70;;;24.30;;
45522;SDS011;31254;51.680;5.394;2022-08-19T11:43:59;35.03;;;22.52;;
45522;SDS011;31254;51.680;5.394;2022-08-19T11:46:29;35.05;;;22.67;;
45522;SDS011;31254;51.680;5.394;2022-08-19T11:48:57;33.17;;;22.80;;
45522;SDS011;31254;51.680;5.394;2022-08-19T11:51:29;33.10;;;22.70;;
45522;SDS011;31254;51.680;5.394;2022-08-19T11:53:58;27.80;;;20.58;;
45522;SDS011;31254;51.680;5.394;2022-08-19T11:56:27;35.63;;;23.20;;
45522;SDS011;31254;51.680;5.394;2022-08-19T11:59:00;37.70;;;22.70;;
45522;SDS011;31254;51.680;5.394;2022-08-19T12:01:28;32.40;;;21.10;;
45522;SDS011;31254;51.680;5.394;2022-08-19T12:03:55;30.75;;;22.52;;
45522;SDS011;31254;51.680;5.394;2022-08-19T12:06:25;32.80;;;22.63;;
45522;SDS011;31254;51.680;5.394;2022-08-19T12:08:55;35.15;;;21.58;;
45522;SDS011;31254;51.680;5.394;2022-08-19T12:11:26;31.20;;;20.67;;
45522;SDS011;31254;51.680;5.394;2022-08-19T12:14:02;31.08;;;20.92;;
45522;SDS011;31254;51.680;5.394;2022-08-19T12:16:30;28.63;;;20.33;;
45522;SDS011;31254;51.680;5.394;2022-08-19T12:18:59;29.45;;;20.08;;
45522;SDS011;31254;51.680;5.394;2022-08-19T12:21:34;26.45;;;19.83;;
45522;SDS011;31254;51.680;5.394;2022-08-19T12:24:03;29.90;;;20.13;;
45522;SDS011;31254;51.680;5.394;2022-08-19T12:26:32;31.30;;;21.10;;
45522;SDS011;31254;51.680;5.394;2022-08-19T12:29:18;28.90;;;18.98;;
45522;SDS011;31254;51.680;5.394;2022-08-19T12:31:49;25.33;;;19.02;;
45522;SDS011;31254;51.680;5.394;2022-08-19T12:34:16;26.30;;;18.35;;
45522;SDS011;31254;51.680;5.394;2022-08-19T12:36:45;27.58;;;18.90;;
45522;SDS011;31254;51.680;5.394;2022-08-19T12:39:16;25.60;;;17.98;;
45522;SDS011;31254;51.680;5.394;2022-08-19T12:41:42;27.27;;;17.52;;
45522;SDS011;31254;51.680;5.394;2022-08-19T12:44:20;30.65;;;17.38;;
45522;SDS011;31254;51.680;5.394;2022-08-19T12:46:57;25.63;;;17.95;;
45522;SDS011;31254;51.680;5.394;2022-08-19T12:49:29;27.42;;;16.95;;
45522;SDS011;31254;51.680;5.394;2022-08-19T12:52:17;24.75;;;16.30;;
45522;SDS011;31254;51.680;5.394;2022-08-19T12:54:48;27.23;;;18.33;;
45522;SDS011;31254;51.680;5.394;2022-08-19T12:57:19;27.05;;;18.55;;
45522;SDS011;31254;51.680;5.394;2022-08-19T12:59:45;29.83;;;18.83;;
45522;SDS011;31254;51.680;5.394;2022-08-19T13:02:12;27.65;;;19.45;;
45522;SDS011;31254;51.680;5.394;2022-08-19T13:04:39;24.92;;;18.60;;
45522;SDS011;31254;51.680;5.394;2022-08-19T13:07:07;27.83;;;19.38;;
45522;SDS011;31254;51.680;5.394;2022-08-19T13:09:35;33.67;;;20.05;;
45522;SDS011;31254;51.680;5.394;2022-08-19T13:12:02;27.75;;;19.20;;
45522;SDS011;31254;51.680;5.394;2022-08-19T13:14:34;25.40;;;18.95;;
45522;SDS011;31254;51.680;5.394;2022-08-19T13:17:02;32.45;;;20.98;;
45522;SDS011;31254;51.680;5.394;2022-08-19T13:19:31;35.80;;;22.50;;
45522;SDS011;31254;51.680;5.394;2022-08-19T13:21:57;34.58;;;24.25;;
45522;SDS011;31254;51.680;5.394;2022-08-19T13:24:25;32.85;;;23.38;;
45522;SDS011;31254;51.680;5.394;2022-08-19T13:26:59;34.03;;;24.98;;
45522;SDS011;31254;51.680;5.394;2022-08-19T13:29:27;38.03;;;26.20;;
45522;SDS011;31254;51.680;5.394;2022-08-19T13:32:11;34.55;;;25.67;;
45522;SDS011;31254;51.680;5.394;2022-08-19T13:34:57;33.80;;;23.67;;
45522;SDS011;31254;51.680;5.394;2022-08-19T13:37:23;36.03;;;23.55;;
45522;SDS011;31254;51.680;5.394;2022-08-19T13:40:12;33.95;;;24.45;;
45522;SDS011;31254;51.680;5.394;2022-08-19T13:42:52;33.53;;;23.88;;
45522;SDS011;31254;51.680;5.394;2022-08-19T13:45:23;35.60;;;25.90;;
45522;SDS011;31254;51.680;5.394;2022-08-19T13:47:54;38.75;;;25.73;;
45522;SDS011;31254;51.680;5.394;2022-08-19T13:50:27;37.28;;;25.27;;
45522;SDS011;31254;51.680;5.394;2022-08-19T13:52:59;35.92;;;24.35;;
45522;SDS011;31254;51.680;5.394;2022-08-19T13:55:28;33.58;;;24.58;;
45522;SDS011;31254;51.680;5.394;2022-08-19T13:57:57;36.65;;;25.20;;
45522;SDS011;31254;51.680;5.394;2022-08-19T14:00:29;38.05;;;25.80;;
45522;SDS011;31254;51.680;5.394;2022-08-19T14:02:59;34.95;;;25.10;;
45522;SDS011;31254;51.680;5.394;2022-08-19T14:05:27;32.85;;;24.95;;
45522;SDS011;31254;51.680;5.394;2022-08-19T14:08:02;34.63;;;24.98;;
45522;SDS011;31254;51.680;5.394;2022-08-19T14:10:29;28.55;;;21.52;;
45522;SDS011;31254;51.680;5.394;2022-08-19T14:12:58;29.83;;;21.48;;
45522;SDS011;31254;51.680;5.394;2022-08-19T14:15:29;31.90;;;22.58;;
45522;SDS011;31254;51.680;5.394;2022-08-19T14:17:58;31.55;;;21.52;;
45522;SDS011;31254;51.680;5.394;2022-08-19T14:20:26;28.90;;;19.42;;
45522;SDS011;31254;51.680;5.394;2022-08-19T14:22:54;28.27;;;18.88;;
45522;SDS011;31254;51.680;5.394;2022-08-19T14:25:24;27.20;;;20.10;;
45522;SDS011;31254;51.680;5.394;2022-08-19T14:27:54;24.02;;;17.25;;
45522;SDS011;31254;51.680;5.394;2022-08-19T14:30:25;24.58;;;15.55;;
45522;SDS011;31254;51.680;5.394;2022-08-19T14:32:55;24.48;;;14.98;;
45522;SDS011;31254;51.680;5.394;2022-08-19T14:35:22;19.00;;;12.32;;
45522;SDS011;31254;51.680;5.394;2022-08-19T14:37:50;17.27;;;12.85;;
45522;SDS011;31254;51.680;5.394;2022-08-19T14:40:20;36.33;;;15.57;;
45522;SDS011;31254;51.680;5.394;2022-08-19T14:42:59;30.35;;;14.55;;
45522;SDS011;31254;51.680;5.394;2022-08-19T14:45:32;26.88;;;14.60;;
45522;SDS011;31254;51.680;5.394;2022-08-19T14:48:03;21.17;;;14.43;;
45522;SDS011;31254;51.680;5.394;2022-08-19T14:50:30;20.60;;;14.00;;
45522;SDS011;31254;51.680;5.394;2022-08-19T14:52:58;21.10;;;15.00;;
45522;SDS011;31254;51.680;5.394;2022-08-19T14:55:41;20.17;;;13.63;;
45522;SDS011;31254;51.680;5.394;2022-08-19T14:58:09;18.08;;;11.63;;
45522;SDS011;31254;51.680;5.394;2022-08-19T15:00:53;16.00;;;10.65;;